Aspen (ASE/KASE)

Information

Location
Aspen, CO
Local Time
16:33 / 4:33 pm
GMT Time
23:33 / 11:33 pm
Gates
2
No FAA reported delays
METAR KASE 182253Z 32006KT 10SM CLR 04/M10 A3019 RMK AO2 SLP218 T00441100
TAF KASE 181724Z 1818/1918 00000KT P6SM FEW250